sensor_id;sensor_type;location;lat;lon;timestamp;P1;durP1;ratioP1;P2;durP2;ratioP2
4089;SDS011;2059;48.538;12.146;2022-07-06T00:00:17;4.20;;;3.90;;
4089;SDS011;2059;48.538;12.146;2022-07-06T00:05:19;5.00;;;4.70;;
4089;SDS011;2059;48.538;12.146;2022-07-06T00:10:21;5.97;;;5.57;;
4089;SDS011;2059;48.538;12.146;2022-07-06T00:15:24;6.13;;;5.73;;
4089;SDS011;2059;48.538;12.146;2022-07-06T00:20:26;5.80;;;5.40;;
4089;SDS011;2059;48.538;12.146;2022-07-06T00:25:28;5.80;;;5.40;;
4089;SDS011;2059;48.538;12.146;2022-07-06T00:30:31;6.10;;;5.70;;
4089;SDS011;2059;48.538;12.146;2022-07-06T00:35:33;6.73;;;5.40;;
4089;SDS011;2059;48.538;12.146;2022-07-06T00:40:35;5.87;;;5.57;;
4089;SDS011;2059;48.538;12.146;2022-07-06T00:45:39;5.70;;;5.40;;
4089;SDS011;2059;48.538;12.146;2022-07-06T00:50:40;6.00;;;5.40;;
4089;SDS011;2059;48.538;12.146;2022-07-06T00:55:42;5.63;;;5.13;;
4089;SDS011;2059;48.538;12.146;2022-07-06T01:00:46;6.17;;;5.77;;
4089;SDS011;2059;48.538;12.146;2022-07-06T01:05:48;6.10;;;5.70;;
4089;SDS011;2059;48.538;12.146;2022-07-06T01:10:51;4.00;;;3.70;;
4089;SDS011;2059;48.538;12.146;2022-07-06T01:15:54;4.83;;;4.43;;
4089;SDS011;2059;48.538;12.146;2022-07-06T01:21:08;4.20;;;3.90;;
4089;SDS011;2059;48.538;12.146;2022-07-06T01:26:11;3.83;;;3.63;;
4089;SDS011;2059;48.538;12.146;2022-07-06T01:31:14;3.80;;;3.60;;
4089;SDS011;2059;48.538;12.146;2022-07-06T01:36:19;4.00;;;3.60;;
4089;SDS011;2059;48.538;12.146;2022-07-06T01:41:21;7.27;;;6.17;;
4089;SDS011;2059;48.538;12.146;2022-07-06T01:46:23;4.20;;;3.80;;
4089;SDS011;2059;48.538;12.146;2022-07-06T01:51:26;3.80;;;3.60;;
4089;SDS011;2059;48.538;12.146;2022-07-06T01:56:28;5.10;;;4.80;;
4089;SDS011;2059;48.538;12.146;2022-07-06T02:01:30;6.67;;;6.30;;
4089;SDS011;2059;48.538;12.146;2022-07-06T02:06:33;6.77;;;6.23;;
4089;SDS011;2059;48.538;12.146;2022-07-06T02:11:35;7.67;;;6.30;;
4089;SDS011;2059;48.538;12.146;2022-07-06T02:16:37;4.60;;;3.67;;
4089;SDS011;2059;48.538;12.146;2022-07-06T02:21:40;4.80;;;4.40;;
4089;SDS011;2059;48.538;12.146;2022-07-06T02:26:42;6.47;;;6.07;;
4089;SDS011;2059;48.538;12.146;2022-07-06T02:31:44;6.67;;;6.27;;
4089;SDS011;2059;48.538;12.146;2022-07-06T02:36:47;6.90;;;6.20;;
4089;SDS011;2059;48.538;12.146;2022-07-06T02:41:49;7.87;;;7.23;;
4089;SDS011;2059;48.538;12.146;2022-07-06T02:46:51;7.10;;;6.70;;
4089;SDS011;2059;48.538;12.146;2022-07-06T02:51:54;7.40;;;6.90;;
4089;SDS011;2059;48.538;12.146;2022-07-06T02:56:56;6.77;;;6.27;;
4089;SDS011;2059;48.538;12.146;2022-07-06T03:01:58;8.10;;;7.50;;
4089;SDS011;2059;48.538;12.146;2022-07-06T03:07:01;7.70;;;6.30;;
4089;SDS011;2059;48.538;12.146;2022-07-06T03:12:03;7.23;;;6.70;;
4089;SDS011;2059;48.538;12.146;2022-07-06T03:17:05;8.23;;;6.83;;
4089;SDS011;2059;48.538;12.146;2022-07-06T03:22:09;6.70;;;6.30;;
4089;SDS011;2059;48.538;12.146;2022-07-06T03:27:11;6.37;;;5.87;;
4089;SDS011;2059;48.538;12.146;2022-07-06T03:32:12;6.87;;;6.47;;
4089;SDS011;2059;48.538;12.146;2022-07-06T03:37:16;8.73;;;6.57;;
4089;SDS011;2059;48.538;12.146;2022-07-06T03:42:18;6.93;;;6.53;;
4089;SDS011;2059;48.538;12.146;2022-07-06T03:47:19;7.27;;;6.70;;
4089;SDS011;2059;48.538;12.146;2022-07-06T03:52:23;7.07;;;6.57;;
4089;SDS011;2059;48.538;12.146;2022-07-06T03:57:24;7.63;;;7.17;;
4089;SDS011;2059;48.538;12.146;2022-07-06T04:02:26;7.80;;;7.10;;
4089;SDS011;2059;48.538;12.146;2022-07-06T04:07:30;8.50;;;6.60;;
4089;SDS011;2059;48.538;12.146;2022-07-06T04:12:31;7.40;;;6.90;;
4089;SDS011;2059;48.538;12.146;2022-07-06T04:17:40;8.00;;;7.50;;
4089;SDS011;2059;48.538;12.146;2022-07-06T04:22:55;11.73;;;8.30;;
4089;SDS011;2059;48.538;12.146;2022-07-06T04:27:57;7.37;;;6.80;;
4089;SDS011;2059;48.538;12.146;2022-07-06T04:32:59;8.33;;;7.63;;
4089;SDS011;2059;48.538;12.146;2022-07-06T04:38:02;7.80;;;7.13;;
4089;SDS011;2059;48.538;12.146;2022-07-06T04:43:04;8.40;;;7.70;;
4089;SDS011;2059;48.538;12.146;2022-07-06T04:48:06;8.17;;;7.37;;
4089;SDS011;2059;48.538;12.146;2022-07-06T04:53:10;8.20;;;7.50;;
4089;SDS011;2059;48.538;12.146;2022-07-06T04:58:12;7.77;;;7.17;;
4089;SDS011;2059;48.538;12.146;2022-07-06T05:03:14;8.33;;;7.63;;
4089;SDS011;2059;48.538;12.146;2022-07-06T05:08:17;7.70;;;7.10;;
4089;SDS011;2059;48.538;12.146;2022-07-06T05:13:19;8.37;;;7.53;;
4089;SDS011;2059;48.538;12.146;2022-07-06T05:18:21;8.40;;;7.63;;
4089;SDS011;2059;48.538;12.146;2022-07-06T05:23:24;8.20;;;7.47;;
4089;SDS011;2059;48.538;12.146;2022-07-06T05:28:26;7.40;;;7.00;;
4089;SDS011;2059;48.538;12.146;2022-07-06T05:33:28;8.30;;;7.70;;
4089;SDS011;2059;48.538;12.146;2022-07-06T05:38:31;7.30;;;6.90;;
4089;SDS011;2059;48.538;12.146;2022-07-06T05:43:34;6.80;;;6.30;;
4089;SDS011;2059;48.538;12.146;2022-07-06T05:48:37;7.10;;;6.60;;
4089;SDS011;2059;48.538;12.146;2022-07-06T05:53:57;7.60;;;7.00;;
4089;SDS011;2059;48.538;12.146;2022-07-06T05:58:59;7.37;;;6.77;;
4089;SDS011;2059;48.538;12.146;2022-07-06T06:04:01;7.00;;;6.60;;
4089;SDS011;2059;48.538;12.146;2022-07-06T06:09:04;7.60;;;7.00;;
4089;SDS011;2059;48.538;12.146;2022-07-06T06:14:06;7.37;;;6.67;;
4089;SDS011;2059;48.538;12.146;2022-07-06T06:19:08;12.70;;;6.90;;
4089;SDS011;2059;48.538;12.146;2022-07-06T06:24:11;7.37;;;6.93;;
4089;SDS011;2059;48.538;12.146;2022-07-06T06:29:13;7.30;;;6.70;;
4089;SDS011;2059;48.538;12.146;2022-07-06T06:34:14;7.70;;;7.20;;
4089;SDS011;2059;48.538;12.146;2022-07-06T06:39:18;8.50;;;7.70;;
4089;SDS011;2059;48.538;12.146;2022-07-06T06:44:20;7.43;;;6.97;;
4089;SDS011;2059;48.538;12.146;2022-07-06T06:49:23;7.83;;;7.23;;
4089;SDS011;2059;48.538;12.146;2022-07-06T06:54:26;9.13;;;6.93;;
4089;SDS011;2059;48.538;12.146;2022-07-06T06:59:28;8.40;;;7.60;;
4089;SDS011;2059;48.538;12.146;2022-07-06T07:04:29;8.10;;;7.30;;
4089;SDS011;2059;48.538;12.146;2022-07-06T07:09:33;7.90;;;7.30;;
4089;SDS011;2059;48.538;12.146;2022-07-06T07:14:34;4.37;;;4.07;;
4089;SDS011;2059;48.538;12.146;2022-07-06T07:19:37;4.57;;;4.17;;
4089;SDS011;2059;48.538;12.146;2022-07-06T07:24:40;4.40;;;4.10;;
4089;SDS011;2059;48.538;12.146;2022-07-06T07:29:42;4.90;;;4.50;;
4089;SDS011;2059;48.538;12.146;2022-07-06T07:34:44;4.70;;;4.40;;
4089;SDS011;2059;48.538;12.146;2022-07-06T07:39:47;6.63;;;6.23;;
4089;SDS011;2059;48.538;12.146;2022-07-06T07:44:49;6.70;;;4.40;;
4089;SDS011;2059;48.538;12.146;2022-07-06T07:49:51;5.20;;;4.70;;
4089;SDS011;2059;48.538;12.146;2022-07-06T07:54:54;7.20;;;5.70;;
4089;SDS011;2059;48.538;12.146;2022-07-06T07:59:56;6.47;;;5.97;;
4089;SDS011;2059;48.538;12.146;2022-07-06T08:04:58;5.20;;;4.20;;
4089;SDS011;2059;48.538;12.146;2022-07-06T08:10:01;8.10;;;4.30;;
4089;SDS011;2059;48.538;12.146;2022-07-06T08:15:04;4.50;;;4.10;;
4089;SDS011;2059;48.538;12.146;2022-07-06T08:20:07;4.37;;;4.03;;
4089;SDS011;2059;48.538;12.146;2022-07-06T08:25:11;3.97;;;3.73;;
4089;SDS011;2059;48.538;12.146;2022-07-06T08:30:13;4.17;;;3.87;;
4089;SDS011;2059;48.538;12.146;2022-07-06T08:35:15;4.33;;;3.93;;
4089;SDS011;2059;48.538;12.146;2022-07-06T08:40:18;8.40;;;4.33;;
4089;SDS011;2059;48.538;12.146;2022-07-06T08:45:20;4.57;;;4.10;;
4089;SDS011;2059;48.538;12.146;2022-07-06T08:50:23;6.63;;;6.23;;
4089;SDS011;2059;48.538;12.146;2022-07-06T08:55:28;5.53;;;3.87;;
4089;SDS011;2059;48.538;12.146;2022-07-06T09:00:30;4.53;;;4.13;;
4089;SDS011;2059;48.538;12.146;2022-07-06T09:05:33;5.20;;;4.33;;
4089;SDS011;2059;48.538;12.146;2022-07-06T09:10:38;4.20;;;3.90;;
4089;SDS011;2059;48.538;12.146;2022-07-06T09:15:40;4.60;;;4.17;;
4089;SDS011;2059;48.538;12.146;2022-07-06T09:20:42;3.93;;;3.73;;
4089;SDS011;2059;48.538;12.146;2022-07-06T09:25:48;6.93;;;6.40;;
4089;SDS011;2059;48.538;12.146;2022-07-06T09:30:53;5.13;;;4.60;;
4089;SDS011;2059;48.538;12.146;2022-07-06T09:35:56;4.53;;;4.13;;
4089;SDS011;2059;48.538;12.146;2022-07-06T09:41:02;5.60;;;4.83;;
4089;SDS011;2059;48.538;12.146;2022-07-06T09:46:04;3.90;;;3.60;;
4089;SDS011;2059;48.538;12.146;2022-07-06T09:51:06;4.23;;;3.80;;
4089;SDS011;2059;48.538;12.146;2022-07-06T09:56:09;4.10;;;3.80;;
4089;SDS011;2059;48.538;12.146;2022-07-06T10:01:14;5.33;;;5.03;;
4089;SDS011;2059;48.538;12.146;2022-07-06T10:06:27;5.93;;;5.40;;
4089;SDS011;2059;48.538;12.146;2022-07-06T10:11:30;6.23;;;4.60;;
4089;SDS011;2059;48.538;12.146;2022-07-06T10:16:35;4.87;;;4.47;;
4089;SDS011;2059;48.538;12.146;2022-07-06T10:21:38;5.47;;;4.93;;
4089;SDS011;2059;48.538;12.146;2022-07-06T10:26:42;5.60;;;5.10;;
4089;SDS011;2059;48.538;12.146;2022-07-06T10:31:45;6.33;;;5.93;;
4089;SDS011;2059;48.538;12.146;2022-07-06T10:36:49;4.00;;;3.70;;
4089;SDS011;2059;48.538;12.146;2022-07-06T10:41:54;6.63;;;5.00;;
4089;SDS011;2059;48.538;12.146;2022-07-06T10:46:57;5.30;;;5.00;;
4089;SDS011;2059;48.538;12.146;2022-07-06T10:51:59;6.87;;;6.47;;
4089;SDS011;2059;48.538;12.146;2022-07-06T10:57:05;6.17;;;5.87;;
4089;SDS011;2059;48.538;12.146;2022-07-06T11:02:11;6.53;;;5.90;;
4089;SDS011;2059;48.538;12.146;2022-07-06T11:07:15;5.90;;;5.40;;
4089;SDS011;2059;48.538;12.146;2022-07-06T11:12:19;6.67;;;6.23;;
4089;SDS011;2059;48.538;12.146;2022-07-06T11:17:21;6.17;;;5.77;;
4089;SDS011;2059;48.538;12.146;2022-07-06T11:22:24;7.47;;;6.77;;
4089;SDS011;2059;48.538;12.146;2022-07-06T11:27:33;6.23;;;5.73;;
4089;SDS011;2059;48.538;12.146;2022-07-06T11:32:35;6.33;;;5.73;;
4089;SDS011;2059;48.538;12.146;2022-07-06T11:37:37;6.90;;;6.20;;
4089;SDS011;2059;48.538;12.146;2022-07-06T11:42:40;7.13;;;5.70;;
4089;SDS011;2059;48.538;12.146;2022-07-06T11:48:09;5.90;;;5.60;;
4089;SDS011;2059;48.538;12.146;2022-07-06T11:53:13;6.40;;;5.90;;
4089;SDS011;2059;48.538;12.146;2022-07-06T11:58:17;8.30;;;5.87;;
4089;SDS011;2059;48.538;12.146;2022-07-06T12:03:22;6.60;;;6.10;;
4089;SDS011;2059;48.538;12.146;2022-07-06T12:08:24;6.03;;;5.70;;
4089;SDS011;2059;48.538;12.146;2022-07-06T12:13:28;6.23;;;5.80;;
4089;SDS011;2059;48.538;12.146;2022-07-06T12:18:39;5.90;;;5.50;;
4089;SDS011;2059;48.538;12.146;2022-07-06T12:23:43;5.87;;;5.47;;
4089;SDS011;2059;48.538;12.146;2022-07-06T12:28:58;6.03;;;5.53;;
4089;SDS011;2059;48.538;12.146;2022-07-06T12:34:01;6.13;;;5.63;;
4089;SDS011;2059;48.538;12.146;2022-07-06T12:39:09;5.63;;;5.27;;
4089;SDS011;2059;48.538;12.146;2022-07-06T12:44:15;6.00;;;5.50;;
4089;SDS011;2059;48.538;12.146;2022-07-06T12:49:19;16.30;;;7.40;;
4089;SDS011;2059;48.538;12.146;2022-07-06T12:54:24;6.47;;;5.87;;
4089;SDS011;2059;48.538;12.146;2022-07-06T12:59:28;6.37;;;5.97;;
4089;SDS011;2059;48.538;12.146;2022-07-06T13:04:31;5.80;;;5.30;;
4089;SDS011;2059;48.538;12.146;2022-07-06T13:09:33;11.30;;;6.83;;
4089;SDS011;2059;48.538;12.146;2022-07-06T13:14:36;6.77;;;5.37;;
4089;SDS011;2059;48.538;12.146;2022-07-06T13:19:38;6.47;;;5.90;;
4089;SDS011;2059;48.538;12.146;2022-07-06T13:24:40;5.90;;;5.60;;
4089;SDS011;2059;48.538;12.146;2022-07-06T13:29:44;5.67;;;5.37;;
4089;SDS011;2059;48.538;12.146;2022-07-06T13:34:46;8.50;;;6.57;;
4089;SDS011;2059;48.538;12.146;2022-07-06T13:39:48;5.40;;;5.10;;
4089;SDS011;2059;48.538;12.146;2022-07-06T13:44:51;5.23;;;4.97;;
4089;SDS011;2059;48.538;12.146;2022-07-06T13:49:53;5.83;;;5.50;;
4089;SDS011;2059;48.538;12.146;2022-07-06T13:54:54;5.60;;;5.20;;
4089;SDS011;2059;48.538;12.146;2022-07-06T13:59:58;5.97;;;5.47;;
4089;SDS011;2059;48.538;12.146;2022-07-06T14:04:59;5.90;;;5.60;;
4089;SDS011;2059;48.538;12.146;2022-07-06T14:10:01;6.30;;;6.00;;
4089;SDS011;2059;48.538;12.146;2022-07-06T14:15:06;9.30;;;6.03;;
4089;SDS011;2059;48.538;12.146;2022-07-06T14:20:09;10.20;;;6.13;;
4089;SDS011;2059;48.538;12.146;2022-07-06T14:25:11;6.03;;;5.57;;
4089;SDS011;2059;48.538;12.146;2022-07-06T14:30:14;5.63;;;5.17;;
4089;SDS011;2059;48.538;12.146;2022-07-06T14:35:16;5.90;;;5.50;;
4089;SDS011;2059;48.538;12.146;2022-07-06T14:40:18;5.77;;;5.37;;
4089;SDS011;2059;48.538;12.146;2022-07-06T14:45:21;5.60;;;5.20;;
4089;SDS011;2059;48.538;12.146;2022-07-06T14:50:24;5.50;;;5.30;;
4089;SDS011;2059;48.538;12.146;2022-07-06T14:55:26;5.87;;;5.37;;
4089;SDS011;2059;48.538;12.146;2022-07-06T15:00:29;5.50;;;5.27;;
4089;SDS011;2059;48.538;12.146;2022-07-06T15:05:31;6.33;;;5.90;;
4089;SDS011;2059;48.538;12.146;2022-07-06T15:10:33;6.07;;;5.57;;
4089;SDS011;2059;48.538;12.146;2022-07-06T15:15:37;5.83;;;5.43;;
4089;SDS011;2059;48.538;12.146;2022-07-06T15:20:39;5.40;;;5.00;;
4089;SDS011;2059;48.538;12.146;2022-07-06T15:25:40;3.10;;;3.00;;
4089;SDS011;2059;48.538;12.146;2022-07-06T15:30:44;2.90;;;2.80;;
4089;SDS011;2059;48.538;12.146;2022-07-06T15:35:45;3.53;;;3.13;;
4089;SDS011;2059;48.538;12.146;2022-07-06T15:40:48;3.43;;;3.23;;
4089;SDS011;2059;48.538;12.146;2022-07-06T15:45:57;5.73;;;4.83;;
4089;SDS011;2059;48.538;12.146;2022-07-06T15:51:00;3.00;;;2.90;;
4089;SDS011;2059;48.538;12.146;2022-07-06T15:56:02;3.10;;;2.90;;
4089;SDS011;2059;48.538;12.146;2022-07-06T16:01:06;3.83;;;3.43;;
4089;SDS011;2059;48.538;12.146;2022-07-06T16:06:08;5.10;;;4.63;;
4089;SDS011;2059;48.538;12.146;2022-07-06T16:11:10;3.00;;;2.90;;
4089;SDS011;2059;48.538;12.146;2022-07-06T16:16:14;3.53;;;3.33;;
4089;SDS011;2059;48.538;12.146;2022-07-06T16:21:16;3.10;;;2.80;;
4089;SDS011;2059;48.538;12.146;2022-07-06T16:26:18;5.03;;;3.83;;
4089;SDS011;2059;48.538;12.146;2022-07-06T16:31:21;5.10;;;4.83;;
4089;SDS011;2059;48.538;12.146;2022-07-06T16:36:23;5.00;;;4.70;;
4089;SDS011;2059;48.538;12.146;2022-07-06T16:41:25;5.07;;;4.77;;
4089;SDS011;2059;48.538;12.146;2022-07-06T16:46:29;4.47;;;4.17;;
4089;SDS011;2059;48.538;12.146;2022-07-06T16:51:40;3.70;;;3.60;;
4089;SDS011;2059;48.538;12.146;2022-07-06T16:56:42;4.77;;;4.57;;
4089;SDS011;2059;48.538;12.146;2022-07-06T17:01:45;3.90;;;3.80;;
4089;SDS011;2059;48.538;12.146;2022-07-06T17:06:47;4.10;;;4.00;;
4089;SDS011;2059;48.538;12.146;2022-07-06T17:11:49;4.00;;;3.80;;
4089;SDS011;2059;48.538;12.146;2022-07-06T17:16:55;3.80;;;3.70;;
4089;SDS011;2059;48.538;12.146;2022-07-06T17:22:01;5.77;;;5.10;;
4089;SDS011;2059;48.538;12.146;2022-07-06T17:27:03;3.07;;;2.87;;
4089;SDS011;2059;48.538;12.146;2022-07-06T17:32:07;3.10;;;3.00;;
4089;SDS011;2059;48.538;12.146;2022-07-06T17:37:10;3.90;;;3.63;;
4089;SDS011;2059;48.538;12.146;2022-07-06T17:42:12;5.23;;;5.03;;
4089;SDS011;2059;48.538;12.146;2022-07-06T17:47:16;5.97;;;3.60;;
4089;SDS011;2059;48.538;12.146;2022-07-06T17:52:20;5.93;;;5.17;;
4089;SDS011;2059;48.538;12.146;2022-07-06T17:57:40;5.73;;;5.10;;
4089;SDS011;2059;48.538;12.146;2022-07-06T18:02:44;5.50;;;5.20;;
4089;SDS011;2059;48.538;12.146;2022-07-06T18:07:46;4.87;;;4.30;;
4089;SDS011;2059;48.538;12.146;2022-07-06T18:12:48;5.30;;;5.00;;
4089;SDS011;2059;48.538;12.146;2022-07-06T18:17:51;4.43;;;3.70;;
4089;SDS011;2059;48.538;12.146;2022-07-06T18:22:54;3.90;;;3.60;;
4089;SDS011;2059;48.538;12.146;2022-07-06T18:27:56;4.00;;;3.70;;
4089;SDS011;2059;48.538;12.146;2022-07-06T18:32:59;4.77;;;4.47;;
4089;SDS011;2059;48.538;12.146;2022-07-06T18:38:01;4.53;;;4.00;;
4089;SDS011;2059;48.538;12.146;2022-07-06T18:43:03;4.20;;;3.90;;
4089;SDS011;2059;48.538;12.146;2022-07-06T18:48:07;4.20;;;4.00;;
4089;SDS011;2059;48.538;12.146;2022-07-06T18:53:11;5.20;;;4.90;;
4089;SDS011;2059;48.538;12.146;2022-07-06T18:58:15;6.40;;;5.80;;
4089;SDS011;2059;48.538;12.146;2022-07-06T19:03:18;5.73;;;4.50;;
4089;SDS011;2059;48.538;12.146;2022-07-06T19:08:20;4.30;;;3.90;;
4089;SDS011;2059;48.538;12.146;2022-07-06T19:13:22;4.63;;;4.33;;
4089;SDS011;2059;48.538;12.146;2022-07-06T19:18:25;3.93;;;3.73;;
4089;SDS011;2059;48.538;12.146;2022-07-06T19:23:27;3.90;;;3.70;;
4089;SDS011;2059;48.538;12.146;2022-07-06T19:28:29;4.70;;;4.20;;
4089;SDS011;2059;48.538;12.146;2022-07-06T19:33:33;5.50;;;5.00;;
4089;SDS011;2059;48.538;12.146;2022-07-06T19:38:35;6.43;;;5.60;;
4089;SDS011;2059;48.538;12.146;2022-07-06T19:43:37;3.80;;;3.60;;
4089;SDS011;2059;48.538;12.146;2022-07-06T19:48:40;4.37;;;3.70;;
4089;SDS011;2059;48.538;12.146;2022-07-06T19:53:42;5.43;;;5.00;;
4089;SDS011;2059;48.538;12.146;2022-07-06T19:58:48;6.83;;;5.33;;
4089;SDS011;2059;48.538;12.146;2022-07-06T20:03:52;5.43;;;4.60;;
4089;SDS011;2059;48.538;12.146;2022-07-06T20:08:53;4.10;;;3.70;;
4089;SDS011;2059;48.538;12.146;2022-07-06T20:13:55;4.40;;;4.00;;
4089;SDS011;2059;48.538;12.146;2022-07-06T20:18:59;4.50;;;4.10;;
4089;SDS011;2059;48.538;12.146;2022-07-06T20:24:00;5.27;;;4.97;;
4089;SDS011;2059;48.538;12.146;2022-07-06T20:29:04;5.50;;;5.00;;
4089;SDS011;2059;48.538;12.146;2022-07-06T20:34:08;6.03;;;4.43;;
4089;SDS011;2059;48.538;12.146;2022-07-06T20:39:09;5.60;;;5.10;;
4089;SDS011;2059;48.538;12.146;2022-07-06T20:44:11;3.97;;;3.57;;
4089;SDS011;2059;48.538;12.146;2022-07-06T20:49:14;5.30;;;4.90;;
4089;SDS011;2059;48.538;12.146;2022-07-06T20:54:16;7.43;;;4.87;;
4089;SDS011;2059;48.538;12.146;2022-07-06T20:59:18;3.50;;;3.23;;
4089;SDS011;2059;48.538;12.146;2022-07-06T21:04:21;5.17;;;4.70;;
4089;SDS011;2059;48.538;12.146;2022-07-06T21:09:23;3.70;;;3.50;;
4089;SDS011;2059;48.538;12.146;2022-07-06T21:14:25;4.00;;;3.70;;
4089;SDS011;2059;48.538;12.146;2022-07-06T21:19:28;3.70;;;3.50;;
4089;SDS011;2059;48.538;12.146;2022-07-06T21:24:30;4.03;;;3.73;;
4089;SDS011;2059;48.538;12.146;2022-07-06T21:29:32;4.17;;;3.80;;
4089;SDS011;2059;48.538;12.146;2022-07-06T21:34:35;4.13;;;3.83;;
4089;SDS011;2059;48.538;12.146;2022-07-06T21:39:37;6.70;;;3.53;;
4089;SDS011;2059;48.538;12.146;2022-07-06T21:44:39;5.20;;;3.80;;
4089;SDS011;2059;48.538;12.146;2022-07-06T21:49:42;4.40;;;3.57;;
4089;SDS011;2059;48.538;12.146;2022-07-06T21:54:44;3.90;;;3.60;;
4089;SDS011;2059;48.538;12.146;2022-07-06T21:59:46;4.33;;;3.60;;
4089;SDS011;2059;48.538;12.146;2022-07-06T22:04:50;3.80;;;3.50;;
4089;SDS011;2059;48.538;12.146;2022-07-06T22:09:51;6.93;;;6.23;;
4089;SDS011;2059;48.538;12.146;2022-07-06T22:14:53;5.73;;;5.30;;
4089;SDS011;2059;48.538;12.146;2022-07-06T22:19:56;5.70;;;5.30;;
4089;SDS011;2059;48.538;12.146;2022-07-06T22:24:58;6.10;;;5.67;;
4089;SDS011;2059;48.538;12.146;2022-07-06T22:30:00;6.50;;;5.90;;
4089;SDS011;2059;48.538;12.146;2022-07-06T22:35:04;5.83;;;5.53;;
4089;SDS011;2059;48.538;12.146;2022-07-06T22:40:07;9.03;;;5.70;;
4089;SDS011;2059;48.538;12.146;2022-07-06T22:45:26;3.97;;;3.67;;
4089;SDS011;2059;48.538;12.146;2022-07-06T22:50:30;3.90;;;3.60;;
4089;SDS011;2059;48.538;12.146;2022-07-06T22:55:31;4.37;;;3.73;;
4089;SDS011;2059;48.538;12.146;2022-07-06T23:00:33;3.60;;;3.37;;
4089;SDS011;2059;48.538;12.146;2022-07-06T23:05:37;5.60;;;5.10;;
4089;SDS011;2059;48.538;12.146;2022-07-06T23:10:38;5.90;;;4.90;;
4089;SDS011;2059;48.538;12.146;2022-07-06T23:15:40;3.70;;;3.50;;
4089;SDS011;2059;48.538;12.146;2022-07-06T23:20:44;6.30;;;5.90;;
4089;SDS011;2059;48.538;12.146;2022-07-06T23:25:46;6.00;;;5.60;;
4089;SDS011;2059;48.538;12.146;2022-07-06T23:30:48;8.63;;;5.47;;
4089;SDS011;2059;48.538;12.146;2022-07-06T23:35:51;6.50;;;6.10;;
4089;SDS011;2059;48.538;12.146;2022-07-06T23:40:53;5.63;;;5.30;;
4089;SDS011;2059;48.538;12.146;2022-07-06T23:45:55;6.30;;;5.80;;
4089;SDS011;2059;48.538;12.146;2022-07-06T23:50:58;5.93;;;5.53;;
4089;SDS011;2059;48.538;12.146;2022-07-06T23:56:00;5.80;;;5.20;;
